createdAt,value
2022-12-14T00:04:16.178Z,95807.44
2022-12-14T00:14:36.181Z,95786.78
2022-12-14T00:24:49.172Z,95791.53
2022-12-14T00:35:02.244Z,95803.97
2022-12-14T00:45:16.223Z,95790.12
2022-12-14T00:55:28.226Z,95794.41
2022-12-14T01:05:49.407Z,95785.41
2022-12-14T01:16:18.404Z,95783.81
2022-12-14T01:26:32.201Z,95789.91
2022-12-14T01:36:45.249Z,95757.16
2022-12-14T01:47:08.846Z,95715.38
2022-12-14T01:57:26.250Z,95751.62
2022-12-14T02:07:39.235Z,95757.69
2022-12-14T02:17:54.248Z,95750.34
2022-12-14T02:28:41.273Z,95706.69
2022-12-14T02:38:58.280Z,95687.47
2022-12-14T02:49:19.290Z,95686.72
2022-12-14T02:59:32.276Z,95685.25
2022-12-14T03:09:45.301Z,95671.78
2022-12-14T03:20:02.288Z,95674.38
2022-12-14T03:30:27.142Z,95673.56
2022-12-14T03:41:00.314Z,95668.62
2022-12-14T03:51:28.335Z,95648.44
2022-12-14T04:01:45.383Z,95644.19
2022-12-14T04:12:35.345Z,95635.94
2022-12-14T04:22:53.308Z,95625.91
2022-12-14T04:33:34.335Z,95606.62
2022-12-14T04:43:51.341Z,95594.87
2022-12-14T04:54:08.357Z,95571.31
2022-12-14T05:04:41.333Z,95502.56
2022-12-14T05:15:15.340Z,95496.72
2022-12-14T05:25:28.381Z,95479.25
2022-12-14T05:35:41.339Z,95484.25
2022-12-14T05:45:54.452Z,95465.75
2022-12-14T05:56:07.348Z,95464.78
2022-12-14T06:06:21.381Z,95463.91
2022-12-14T06:16:40.356Z,95467.25
2022-12-14T06:26:53.425Z,95451.41
2022-12-14T06:37:06.458Z,95452.31
2022-12-14T06:47:19.419Z,95449.78
2022-12-14T06:57:32.364Z,95438.81
2022-12-14T07:07:45.426Z,95442.94
2022-12-14T07:17:58.402Z,95400.62
2022-12-14T07:28:11.437Z,95382.25
2022-12-14T07:38:25.403Z,95316.25
2022-12-14T07:48:38.435Z,95294.44
2022-12-14T07:58:51.433Z,95275.72
2022-12-14T08:09:08.439Z,95253.50
2022-12-14T08:19:22.427Z,95211.62
2022-12-14T08:29:35.457Z,95147.78
2022-12-14T08:39:49.504Z,95109.09
2022-12-14T08:50:02.487Z,95023.41
2022-12-14T09:00:17.437Z,95056.97
2022-12-14T09:10:30.502Z,95027.72
2022-12-14T09:20:43.463Z,94970.31
2022-12-14T09:31:01.495Z,94867.28
2022-12-14T09:41:43.488Z,94880.31
2022-12-14T09:51:58.494Z,94839.50
2022-12-14T10:02:41.652Z,94802.69
2022-12-14T10:13:00.502Z,94767.75
2022-12-14T10:23:16.948Z,94739.12
2022-12-14T10:33:37.510Z,94689.53
2022-12-14T10:44:11.480Z,94625.53
2022-12-14T10:54:38.513Z,94671.56
2022-12-14T11:05:03.529Z,94644.06
2022-12-14T11:15:39.546Z,94629.72
2022-12-14T11:25:58.528Z,94641.72
2022-12-14T11:36:11.627Z,94642.25
2022-12-14T11:46:24.591Z,94562.34
2022-12-14T11:56:44.542Z,94526.81
2022-12-14T12:07:02.846Z,94406.03
2022-12-14T12:17:27.583Z,94333.91
2022-12-14T12:27:40.558Z,94184.94
2022-12-14T12:37:57.608Z,94155.47
2022-12-14T12:48:47.589Z,94082.28
2022-12-14T12:59:00.633Z,94083.81
2022-12-14T13:09:24.568Z,94106.78
2022-12-14T13:19:52.596Z,94128.81
2022-12-14T13:30:29.585Z,94120.41
2022-12-14T13:40:47.605Z,94149.94
2022-12-14T13:51:05.731Z,94168.19
2022-12-14T14:01:26.724Z,94159.16
2022-12-14T14:11:42.749Z,94158.88
2022-12-14T14:22:24.554Z,94150.56
2022-12-14T14:32:49.608Z,94164.38
2022-12-14T14:43:07.651Z,94196.53
2022-12-14T14:53:34.633Z,94250.19
2022-12-14T15:03:55.717Z,94256.84
2022-12-14T15:14:11.679Z,94291.75
2022-12-14T15:24:24.657Z,94291.31
2022-12-14T15:34:37.648Z,94273.25
2022-12-14T15:44:57.670Z,94277.28
2022-12-14T15:55:10.664Z,94290.31
2022-12-14T16:05:29.667Z,94273.81
2022-12-14T16:15:49.679Z,94262.72
2022-12-14T16:26:31.704Z,94245.47
2022-12-14T16:37:07.981Z,94228.88
2022-12-14T16:47:22.739Z,94242.69
2022-12-14T16:57:35.764Z,94239.00
2022-12-14T17:07:48.806Z,94182.34
2022-12-14T17:18:04.795Z,94201.00
2022-12-14T17:28:31.835Z,94131.16
2022-12-14T17:38:43.780Z,94095.38
2022-12-14T17:48:58.437Z,94040.25
2022-12-14T17:59:20.792Z,94011.31
2022-12-14T18:09:33.816Z,94005.53
2022-12-14T18:19:47.937Z,93953.50
2022-12-14T18:30:02.826Z,93944.25
2022-12-14T18:40:16.788Z,93993.41
2022-12-14T18:50:29.884Z,94005.63
2022-12-14T19:00:43.839Z,93997.31
2022-12-14T19:11:03.855Z,93991.62
2022-12-14T19:21:17.901Z,94009.69
2022-12-14T19:31:30.916Z,93977.69
2022-12-14T19:41:43.905Z,93954.00
2022-12-14T19:51:56.869Z,93945.31
2022-12-14T20:02:09.993Z,93961.59
2022-12-14T20:12:29.861Z,93899.16
2022-12-14T20:22:42.899Z,93890.09
2022-12-14T20:32:55.874Z,93914.19
2022-12-14T20:43:08.905Z,93935.19
2022-12-14T20:53:21.812Z,93900.38
2022-12-14T21:03:35.538Z,93894.34
2022-12-14T21:13:48.817Z,93867.13
2022-12-14T21:24:01.877Z,93883.75
2022-12-14T21:34:14.830Z,93893.34
2022-12-14T21:44:27.895Z,93906.03
2022-12-14T21:54:40.864Z,93936.75
2022-12-14T22:04:54.912Z,93936.16
2022-12-14T22:15:07.877Z,93947.94
2022-12-14T22:25:20.926Z,93927.78
2022-12-14T22:35:33.846Z,93940.94
2022-12-14T22:45:46.931Z,93936.63
2022-12-14T22:55:59.882Z,93953.31
2022-12-14T23:06:13.921Z,93934.63
2022-12-14T23:16:51.932Z,93945.34
2022-12-14T23:27:22.932Z,93936.25
2022-12-14T23:37:53.890Z,93907.41
2022-12-14T23:48:25.956Z,93944.97
2022-12-14T23:58:57.927Z,93949.47
